Bookmark and Share
Track history (hours):
 

Mary Rose Brusco

More information available from US FCC via Universal Licensing System and Coast Guard Vessel Documentation Center.

Last reported at 2014-Apr-18 14:33 UTC. Time now 2014-Apr-18 18:26 UTC.
Position N 47°59' W 122°13'.

Length 20 m; draft 3 m.

Type: Towing. MMSI: 367324840.

NotesDate/timePositionNaut miles runAvg speedWind from/ knotsBaromVisibWave heightAir tempDewpointWater temp
2014-Apr-18 14:33N 47°59' W 122°13'2 2.3
2014-Apr-18 13:33N 47°58' W 122°17'  
2014-Apr-15 15:05N 47°59' W 122°13'3 5.0
2014-Apr-15 14:33N 47°58' W 122°17'2 1.2
2014-Apr-15 12:34N 47°59' W 122°14'0 0.2
2014-Apr-15 11:34N 47°59' W 122°13'0 0.0
2014-Apr-15 10:34N 47°59' W 122°13'0 0.0
2014-Apr-15 09:32N 47°59' W 122°13'0 0.0
2014-Apr-15 08:34N 47°59' W 122°13'0 0.0
2014-Apr-15 07:34N 47°59' W 122°13'0 0.0
2014-Apr-15 06:34N 47°59' W 122°13'0 0.0
2014-Apr-15 05:34N 47°59' W 122°13'0 0.0
2014-Apr-15 03:33N 47°59' W 122°13'0 0.0
2014-Apr-15 02:34N 47°59' W 122°13'0 0.0
2014-Apr-15 01:34N 47°59' W 122°13'0 0.0
2014-Apr-15 00:34N 47°59' W 122°13'0 0.0
2014-Apr-14 23:34N 47°59' W 122°13'0 0.0
2014-Apr-14 22:33N 47°59' W 122°13'0 0.0
2014-Apr-14 21:34N 47°59' W 122°13'0 0.0
2014-Apr-14 20:34N 47°59' W 122°13'0 0.0
2014-Apr-14 19:32N 47°59' W 122°13'0 0.0
2014-Apr-14 18:33N 47°59' W 122°13'0 0.0
2014-Apr-14 17:34N 47°59' W 122°13'0 0.0
2014-Apr-14 16:34N 47°59' W 122°13'0 0.0
2014-Apr-14 15:34N 47°59' W 122°13'0 0.0
2014-Apr-14 14:33N 47°59' W 122°13'0 0.0
2014-Apr-14 13:34N 47°59' W 122°13'0 0.0
2014-Apr-14 11:34N 47°59' W 122°13'0 0.0
2014-Apr-14 10:34N 47°59' W 122°13'0 0.0
2014-Apr-14 09:33N 47°59' W 122°13'0 0.0
2014-Apr-14 08:34N 47°59' W 122°13'0 0.0
2014-Apr-14 07:34N 47°59' W 122°13'0 0.0
2014-Apr-14 06:34N 47°59' W 122°13'0 0.0
2014-Apr-14 05:34N 47°59' W 122°13'0 0.0
2014-Apr-13 22:30N 47°59' W 122°13'0 0.0
2014-Apr-13 21:16N 47°59' W 122°13'0 0.1
2014-Apr-13 20:32N 47°59' W 122°13'0 0.0
2014-Apr-13 19:31N 47°59' W 122°13'0 0.0
2014-Apr-13 18:33N 47°59' W 122°13'0 0.0
2014-Apr-13 17:34N 47°59' W 122°13'0 0.0
2014-Apr-13 16:34N 47°59' W 122°13'0 0.0
2014-Apr-13 15:34N 47°59' W 122°13'0 0.0
2014-Apr-13 14:33N 47°59' W 122°13'0 0.0
2014-Apr-13 13:34N 47°59' W 122°13'0 0.0
2014-Apr-13 12:34N 47°59' W 122°13'0 0.0
2014-Apr-13 11:34N 47°59' W 122°13'0 0.0
2014-Apr-13 10:33N 47°59' W 122°13'0 0.0
2014-Apr-13 09:32N 47°59' W 122°13'0 0.0
2014-Apr-13 08:33N 47°59' W 122°13'0 0.0
2014-Apr-13 07:34N 47°59' W 122°13'0 0.0
2014-Apr-13 06:34N 47°59' W 122°13'0 0.0
2014-Apr-13 05:34N 47°59' W 122°13'0 0.0
2014-Apr-13 04:34N 47°59' W 122°13'0 0.0
2014-Apr-13 03:34N 47°59' W 122°13'0 0.0
2014-Apr-13 02:33N 47°59' W 122°13'0 0.0
2014-Apr-13 01:33N 47°59' W 122°13'0 0.0
2014-Apr-13 00:33N 47°59' W 122°13'0 0.0
2014-Apr-12 23:33N 47°59' W 122°13'0 0.0
2014-Apr-12 22:32N 47°59' W 122°13'0 0.0
2014-Apr-12 21:33N 47°59' W 122°13'0 0.0
2014-Apr-12 20:06N 47°59' W 122°13'0 0.0
2014-Apr-12 19:33N 47°59' W 122°13'0 0.0
2014-Apr-11 15:05N 47°59' W 122°13'0 0.3
2014-Apr-11 14:34N 47°59' W 122°13'1 1.3
2014-Apr-11 13:30N 47°58' W 122°15'1 0.1
2014-Apr-10 15:10N 47°59' W 122°13'3 5.0
2014-Apr-10 14:33N 47°57' W 122°17'3 3.0
2014-Apr-10 13:33N 47°59' W 122°13'0 0.0
2014-Apr-09 20:10N 47°59' W 122°13'0 0.2
2014-Apr-09 19:33N 47°59' W 122°13'0 0.0
2014-Apr-09 14:33N 47°59' W 122°13'2 2.0
2014-Apr-09 13:33N 47°58' W 122°16'2 2.1
2014-Apr-09 12:33N 47°59' W 122°13'0 0.1
2014-Apr-09 11:33N 47°59' W 122°13'1 1.2
2014-Apr-09 10:31N 47°58' W 122°15'1 1.5
2014-Apr-09 09:33N 47°59' W 122°13'  

Dump ship's entire track history

sailing weather and tide predictions

Mary Rose Brusco — WDE2412 — position and weather